Archival Weather

DuPage County

West Chicago, Illinois (KDPA)

Report from: Thursday, December 7, 2023 4:52 AM CST
Current time: Wednesday, April 24, 2024 2:09 PM CDT

Current weather – Weather history – Daily summaries
Weather forecast

Temperature1.7°C (35.1°F)
Wind chill-1.9°C (28.5°F)
Dew point-1.1°C (30.0°F)
Winds 7 kts (3.6 m/s, 8.1 mph) South-Southwest (200°)
Visibility10 mi. (16.1 km)
Clouds Sky clear
Altimeter29.88 in.Hg (1012 mB)
Relative humidity82 %
Density altitude-1,504 ft. (-458 m)
Sea-level pressure101.2 kPa (1012 mB, 29.90 in.Hg)
Remarks Automated weather observing station with precipitation discriminator
Flight conditions Visual Meteorological Conditions
Raw dataKDPA 071052Z 20007KT 10SM CLR 02/M01 A2988 RMK AO2 SLP124 T00171011
An error has occurred. This application may no longer respond until reloaded. Reload 🗙